TAF Flughafenprognosen

Nürnberg TAF, ausgegeben Sa 23.02. 06:00

TAF EDDN 230500Z 2306/2406 10006KT CAVOK
GültigkeitVonBisWind in Beaufort
(Knoten)
Wolken
(Meter über Grund)
Sichtweite
(Meter)
Wettererscheinung
Grundvorhersage Sa 23.02. 07:00 So 24.02. 07:00 O 2 (6)      

 

Erfurt-Bindersleben TAF, ausgegeben Sa 23.02. 06:00

TAF EDDE 230500Z 2306/2406 08004KT CAVOK BECMG 2320/2322 21005KT
GültigkeitVonBisWind in Beaufort
(Knoten)
Wolken
(Meter über Grund)
Sichtweite
(Meter)
Wettererscheinung
Grundvorhersage Sa 23.02. 07:00 So 24.02. 07:00 O 2 (4) Nicht signifikant >= 10000  
Übergang zu Sa 23.02. 21:00 Sa 23.02. 23:00 SSW 2 (5)      

 

Frankfurt TAF, ausgegeben Sa 23.02. 06:00

TAF EDDF 230500Z 2306/2412 06009KT CAVOK
GültigkeitVonBisWind in Beaufort
(Knoten)
Wolken
(Meter über Grund)
Sichtweite
(Meter)
Wettererscheinung
Grundvorhersage Sa 23.02. 07:00 So 24.02. 13:00 ONO 3 (9)      

 

Stuttgart TAF, ausgegeben Sa 23.02. 06:00

TAF EDDS 230500Z 2306/2406 06006KT 9999 SCT015 PROB30 TEMPO 2306/2308 BKN013 BECMG 2309/2311 07012KT BECMG 2319/2321 07007KT
GültigkeitVonBisWind in Beaufort
(Knoten)
Wolken
(Meter über Grund)
Sichtweite
(Meter)
Wettererscheinung
Grundvorhersage Sa 23.02. 07:00 So 24.02. 07:00 ONO 2 (6) Wolkig (460) >= 10000  
Vorübergehend
(Wahrscheinlichkeit 30 %)
Sa 23.02. 07:00 Sa 23.02. 09:00   Stark bewölkt (400)    
Übergang zu Sa 23.02. 10:00 Sa 23.02. 12:00 ONO 4 (12)      
Übergang zu Sa 23.02. 20:00 Sa 23.02. 22:00 ONO 3 (7)      

 

München TAF, ausgegeben Sa 23.02. 06:00

TAF EDDM 230500Z 2306/2412 07007KT CAVOK BECMG 2308/2310 08012KT BECMG 2315/2317 08007KT
GültigkeitVonBisWind in Beaufort
(Knoten)
Wolken
(Meter über Grund)
Sichtweite
(Meter)
Wettererscheinung
Grundvorhersage Sa 23.02. 07:00 So 24.02. 13:00 ONO 3 (7) Nicht signifikant >= 10000  
Übergang zu Sa 23.02. 09:00 Sa 23.02. 11:00 O 4 (12)      
Übergang zu Sa 23.02. 16:00 Sa 23.02. 18:00 O 3 (7)